createdAt,value
2018-09-10T00:00:43.332Z,12.80
2018-09-10T00:03:12.865Z,13.00
2018-09-10T00:05:42.284Z,13.00
2018-09-10T00:08:11.906Z,13.00
2018-09-10T00:10:41.247Z,12.90
2018-09-10T00:13:10.622Z,12.90
2018-09-10T00:15:39.987Z,12.90
2018-09-10T00:18:09.358Z,12.90
2018-09-10T00:20:38.823Z,12.90
2018-09-10T00:23:08.202Z,12.90
2018-09-10T00:25:37.671Z,12.80
2018-09-10T00:28:07.038Z,12.70
2018-09-10T00:30:36.497Z,12.60
2018-09-10T00:33:05.909Z,12.50
2018-09-10T00:35:36.221Z,12.50
2018-09-10T00:38:05.590Z,12.40
2018-09-10T00:40:34.994Z,12.40
2018-09-10T00:43:04.402Z,12.20
2018-09-10T00:45:33.827Z,12.10
2018-09-10T00:48:03.177Z,12.10
2018-09-10T00:50:32.554Z,12.10
2018-09-10T00:53:01.932Z,12.10
2018-09-10T00:55:31.327Z,12.00
2018-09-10T00:58:00.686Z,12.00
2018-09-10T01:00:30.134Z,12.00
2018-09-10T01:02:59.498Z,12.00
2018-09-10T01:05:28.946Z,12.00
2018-09-10T01:07:58.345Z,12.10
2018-09-10T01:10:27.786Z,12.10
2018-09-10T01:12:57.198Z,12.10
2018-09-10T01:15:26.652Z,12.00
2018-09-10T01:17:56.034Z,11.90
2018-09-10T01:20:25.462Z,11.90
2018-09-10T01:22:54.864Z,11.80
2018-09-10T01:25:24.282Z,11.80
2018-09-10T01:27:53.910Z,11.80
2018-09-10T01:30:23.378Z,11.80
2018-09-10T01:32:52.749Z,11.60
2018-09-10T01:35:22.178Z,11.60
2018-09-10T01:37:51.533Z,11.60
2018-09-10T01:40:20.980Z,11.40
2018-09-10T01:42:50.349Z,11.40
2018-09-10T01:45:19.786Z,11.40
2018-09-10T01:47:49.190Z,11.30
2018-09-10T01:50:18.585Z,11.30
2018-09-10T01:52:47.957Z,11.20
2018-09-10T01:55:17.401Z,11.20
2018-09-10T01:57:46.771Z,11.20
2018-09-10T02:00:16.211Z,11.20
2018-09-10T02:02:45.601Z,11.20
2018-09-10T02:05:15.015Z,11.20
2018-09-10T02:07:44.378Z,11.10
2018-09-10T02:10:13.795Z,11.20
2018-09-10T02:12:43.148Z,11.10
2018-09-10T02:15:12.624Z,11.10
2018-09-10T02:17:42.023Z,11.10
2018-09-10T02:20:11.472Z,11.10
2018-09-10T02:22:40.793Z,11.10
2018-09-10T02:25:10.371Z,11.10
2018-09-10T02:27:39.768Z,11.10
2018-09-10T02:30:09.255Z,11.10
2018-09-10T02:32:38.610Z,11.10
2018-09-10T02:35:08.057Z,11.10
2018-09-10T02:37:37.410Z,11.10
2018-09-10T02:40:06.838Z,11.10
2018-09-10T02:42:36.209Z,11.10
2018-09-10T02:45:06.243Z,11.20
2018-09-10T02:47:35.609Z,11.20
2018-09-10T02:50:05.358Z,11.20
2018-09-10T02:52:34.720Z,11.20
2018-09-10T02:55:04.257Z,11.30
2018-09-10T02:57:33.834Z,11.20
2018-09-10T03:00:03.220Z,11.10
2018-09-10T03:02:32.582Z,11.00
2018-09-10T03:05:02.000Z,11.00
2018-09-10T03:07:31.410Z,11.00
2018-09-10T03:10:00.786Z,11.00
2018-09-10T03:12:30.173Z,10.90
2018-09-10T03:14:59.748Z,10.90
2018-09-10T03:17:29.271Z,10.80
2018-09-10T03:19:58.721Z,10.70
2018-09-10T03:22:28.068Z,10.60
2018-09-10T03:24:57.510Z,10.50
2018-09-10T03:27:26.913Z,10.50
2018-09-10T03:29:56.301Z,10.50
2018-09-10T03:32:25.706Z,10.50
2018-09-10T03:34:55.297Z,10.50
2018-09-10T03:37:24.688Z,10.50
2018-09-10T03:39:54.130Z,10.40
2018-09-10T03:42:23.513Z,10.30
2018-09-10T03:44:52.931Z,10.20
2018-09-10T03:47:22.481Z,10.20
2018-09-10T03:49:51.758Z,10.20
2018-09-10T03:52:21.294Z,10.30
2018-09-10T03:54:50.741Z,10.20
2018-09-10T03:57:20.153Z,10.20
2018-09-10T03:59:49.553Z,10.20
2018-09-10T04:02:18.915Z,10.10
2018-09-10T04:04:49.375Z,10.00
2018-09-10T04:07:18.768Z,10.00
2018-09-10T04:09:48.218Z,10.00
2018-09-10T04:12:17.570Z,10.10
2018-09-10T04:14:46.994Z,10.10
2018-09-10T04:17:16.421Z,10.10
2018-09-10T04:19:45.785Z,10.10
2018-09-10T04:22:15.186Z,10.10
2018-09-10T04:24:44.758Z,10.10
2018-09-10T04:27:14.138Z,10.00
2018-09-10T04:29:43.594Z,10.00
2018-09-10T04:32:12.946Z,10.00
2018-09-10T04:34:42.406Z,10.00
2018-09-10T04:37:11.749Z,9.90
2018-09-10T04:39:41.217Z,9.90
2018-09-10T04:42:10.576Z,10.00
2018-09-10T04:44:40.033Z,9.90
2018-09-10T04:47:09.391Z,9.90
2018-09-10T04:49:38.884Z,9.90
2018-09-10T04:52:08.203Z,9.90
2018-09-10T04:54:37.558Z,9.90
2018-09-10T04:57:06.938Z,9.90
2018-09-10T04:59:36.309Z,9.80
2018-09-10T05:02:05.738Z,9.80
2018-09-10T05:04:35.194Z,9.80
2018-09-10T05:07:04.540Z,9.80
2018-09-10T05:09:33.898Z,9.80
2018-09-10T05:12:03.350Z,9.90
2018-09-10T05:14:32.731Z,9.90
2018-09-10T05:17:02.920Z,10.00
2018-09-10T05:19:33.763Z,10.10
2018-09-10T05:22:03.149Z,10.30
2018-09-10T05:24:32.524Z,10.40
2018-09-10T05:27:01.900Z,10.50
2018-09-10T05:29:31.482Z,10.50
2018-09-10T05:32:00.853Z,10.60
2018-09-10T05:34:30.318Z,10.60
2018-09-10T05:36:59.690Z,10.60
2018-09-10T05:39:29.072Z,10.60
2018-09-10T05:41:58.533Z,10.60
2018-09-10T05:44:27.891Z,10.60
2018-09-10T05:46:57.425Z,10.70
2018-09-10T05:49:26.786Z,10.70
2018-09-10T05:51:56.259Z,10.80
2018-09-10T05:54:25.634Z,10.90
2018-09-10T05:56:55.079Z,10.90
2018-09-10T05:59:24.438Z,11.00
2018-09-10T06:01:54.020Z,11.10
2018-09-10T06:04:23.447Z,11.20
2018-09-10T06:06:52.875Z,11.40
2018-09-10T06:09:22.285Z,11.40
2018-09-10T06:11:51.682Z,11.50
2018-09-10T06:14:21.130Z,11.60
2018-09-10T06:16:50.571Z,11.80
2018-09-10T06:19:19.994Z,11.90
2018-09-10T06:21:49.395Z,12.10
2018-09-10T06:24:18.778Z,12.20
2018-09-10T06:26:48.172Z,12.30
2018-09-10T06:29:17.596Z,12.50
2018-09-10T06:31:46.967Z,12.60
2018-09-10T06:34:16.439Z,12.70
2018-09-10T06:36:45.779Z,12.80
2018-09-10T06:39:15.198Z,12.90
2018-09-10T06:41:44.558Z,12.90
2018-09-10T06:44:14.023Z,13.00
2018-09-10T06:46:43.394Z,13.10
2018-09-10T06:49:12.842Z,13.10
2018-09-10T06:51:42.235Z,13.00
2018-09-10T06:54:11.606Z,13.10
2018-09-10T06:56:40.986Z,13.20
2018-09-10T06:59:10.410Z,13.30
2018-09-10T07:01:39.805Z,13.40
2018-09-10T07:04:09.258Z,13.60
2018-09-10T07:06:38.611Z,13.70
2018-09-10T07:09:10.090Z,13.80
2018-09-10T07:11:40.432Z,13.90
2018-09-10T07:14:09.934Z,13.90
2018-09-10T07:16:39.284Z,13.90
2018-09-10T07:19:08.711Z,14.10
2018-09-10T07:21:38.117Z,14.30
2018-09-10T07:24:07.478Z,14.40
2018-09-10T07:26:36.906Z,14.60
2018-09-10T07:29:06.302Z,14.80
2018-09-10T07:31:35.726Z,15.10
2018-09-10T07:34:05.166Z,15.30
2018-09-10T07:36:34.552Z,15.50
2018-09-10T07:39:04.606Z,15.60
2018-09-10T07:41:34.055Z,15.80
2018-09-10T07:44:04.095Z,15.90
2018-09-10T07:46:33.491Z,16.00
2018-09-10T07:49:02.908Z,16.20
2018-09-10T07:51:32.329Z,16.30
2018-09-10T07:54:01.709Z,16.30
2018-09-10T07:56:31.174Z,16.40
2018-09-10T07:59:00.563Z,16.60
2018-09-10T08:01:29.957Z,16.80
2018-09-10T08:03:59.340Z,16.90
2018-09-10T08:06:28.807Z,17.10
2018-09-10T08:08:58.174Z,17.20
2018-09-10T08:11:27.612Z,17.30
2018-09-10T08:13:56.990Z,17.40
2018-09-10T08:16:26.421Z,17.60
2018-09-10T08:18:55.817Z,17.90
2018-09-10T08:21:25.203Z,17.90
2018-09-10T08:23:54.618Z,18.10
2018-09-10T08:26:24.030Z,18.40
2018-09-10T08:28:53.457Z,18.40
2018-09-10T08:31:22.844Z,18.50
2018-09-10T08:33:52.383Z,18.80
2018-09-10T08:36:21.753Z,19.00
2018-09-10T08:38:51.262Z,19.00
2018-09-10T08:41:20.634Z,19.10
2018-09-10T08:43:50.068Z,19.20
2018-09-10T08:46:19.444Z,19.30
2018-09-10T08:48:48.841Z,19.40
2018-09-10T08:51:18.214Z,19.40
2018-09-10T08:53:47.562Z,19.60
2018-09-10T08:56:17.206Z,19.80
2018-09-10T08:58:46.386Z,19.90
2018-09-10T09:01:15.759Z,20.00
2018-09-10T09:03:45.137Z,20.20
2018-09-10T09:06:14.523Z,20.50
2018-09-10T09:08:44.008Z,20.70
2018-09-10T09:11:13.422Z,20.80
2018-09-10T09:13:42.859Z,20.70
2018-09-10T09:16:12.275Z,20.60
2018-09-10T09:18:41.627Z,20.30
2018-09-10T09:21:11.217Z,20.40
2018-09-10T09:23:40.632Z,20.70
2018-09-10T09:26:09.979Z,20.90
2018-09-10T09:28:39.342Z,20.90
2018-09-10T09:31:08.794Z,21.00
2018-09-10T09:33:38.130Z,21.00
2018-09-10T09:36:12.874Z,21.40
2018-09-10T09:38:47.678Z,21.70
2018-09-10T09:41:22.406Z,22.10
2018-09-10T09:43:57.138Z,22.40
2018-09-10T09:46:26.522Z,22.70
2018-09-10T09:48:55.995Z,23.10
2018-09-10T09:51:25.366Z,23.40
2018-09-10T09:53:54.802Z,23.30
2018-09-10T09:56:24.172Z,23.60
2018-09-10T09:58:53.598Z,23.80
2018-09-10T10:01:28.169Z,23.90
2018-09-10T10:04:01.624Z,24.00
2018-09-10T10:06:31.038Z,23.90
2018-09-10T10:09:00.418Z,24.20
2018-09-10T10:11:29.902Z,24.40
2018-09-10T10:13:59.228Z,24.20
2018-09-10T10:16:28.647Z,24.30
2018-09-10T10:18:57.962Z,24.20
2018-09-10T10:21:27.358Z,24.20
2018-09-10T10:23:56.779Z,24.30
2018-09-10T10:26:26.264Z,24.20
2018-09-10T10:28:55.667Z,24.00
2018-09-10T10:31:25.066Z,24.20
2018-09-10T10:33:54.430Z,24.20
2018-09-10T10:36:23.877Z,24.40
2018-09-10T10:38:53.249Z,24.40
2018-09-10T10:41:22.674Z,24.10
2018-09-10T10:43:52.041Z,24.20
2018-09-10T10:46:21.473Z,24.60
2018-09-10T10:48:50.826Z,25.00
2018-09-10T10:51:20.305Z,25.20
2018-09-10T10:53:49.732Z,24.90
2018-09-10T10:56:19.089Z,24.80
2018-09-10T10:58:48.475Z,25.10
2018-09-10T11:01:18.030Z,25.20
2018-09-10T11:03:47.408Z,25.30
2018-09-10T11:06:16.818Z,25.50
2018-09-10T11:08:46.215Z,26.00
2018-09-10T11:11:15.580Z,25.60
2018-09-10T11:13:44.979Z,25.20
2018-09-10T11:16:14.337Z,25.00
2018-09-10T11:18:43.813Z,25.20
2018-09-10T11:21:13.182Z,25.40
2018-09-10T11:23:42.622Z,25.60
2018-09-10T11:26:11.986Z,25.40
2018-09-10T11:28:41.438Z,25.60
2018-09-10T11:31:10.830Z,25.60
2018-09-10T11:33:40.226Z,26.40
2018-09-10T11:36:09.601Z,27.00
2018-09-10T11:38:39.042Z,27.20
2018-09-10T11:41:08.405Z,27.80
2018-09-10T11:43:37.869Z,27.10
2018-09-10T11:46:07.263Z,26.80
2018-09-10T11:48:36.728Z,27.20
2018-09-10T11:51:06.104Z,27.00
2018-09-10T11:53:35.547Z,26.70
2018-09-10T11:56:04.922Z,26.30
2018-09-10T11:58:34.361Z,26.50
2018-09-10T12:01:03.755Z,26.80
2018-09-10T12:03:33.170Z,27.10
2018-09-10T12:06:02.575Z,27.50
2018-09-10T12:08:31.972Z,28.10
2018-09-10T12:11:01.333Z,27.40
2018-09-10T12:13:30.820Z,27.90
2018-09-10T12:16:00.229Z,28.20
2018-09-10T12:18:29.570Z,28.10
2018-09-10T12:20:59.001Z,28.20
2018-09-10T12:23:28.365Z,28.70
2018-09-10T12:25:57.738Z,28.00
2018-09-10T12:28:27.104Z,27.70
2018-09-10T12:30:56.493Z,28.20
2018-09-10T12:33:25.898Z,27.30
2018-09-10T12:35:55.292Z,26.70
2018-09-10T12:38:24.641Z,26.90
2018-09-10T12:40:54.109Z,27.50
2018-09-10T12:43:23.466Z,26.80
2018-09-10T12:45:52.886Z,26.90
2018-09-10T12:48:22.246Z,26.80
2018-09-10T12:50:51.728Z,27.20
2018-09-10T12:53:21.090Z,27.40
2018-09-10T12:55:50.523Z,28.00
2018-09-10T12:58:19.886Z,28.30
2018-09-10T13:00:49.330Z,28.60
2018-09-10T13:03:18.684Z,28.60
2018-09-10T13:05:48.134Z,28.40
2018-09-10T13:08:17.499Z,28.20
2018-09-10T13:10:47.014Z,28.70
2018-09-10T13:13:16.294Z,28.70
2018-09-10T13:15:46.040Z,29.00
2018-09-10T13:18:15.386Z,27.90
2018-09-10T13:20:44.962Z,27.70
2018-09-10T13:23:14.321Z,27.90
2018-09-10T13:25:43.750Z,27.90
2018-09-10T13:28:13.111Z,27.70
2018-09-10T13:30:42.571Z,27.70
2018-09-10T13:33:11.948Z,27.20
2018-09-10T13:35:41.372Z,27.70
2018-09-10T13:38:10.762Z,27.40
2018-09-10T13:40:40.176Z,28.10
2018-09-10T13:43:09.537Z,28.30
2018-09-10T13:45:39.435Z,28.20
2018-09-10T13:49:12.270Z,27.70
2018-09-10T13:51:41.680Z,27.40
2018-09-10T13:54:11.078Z,27.20
2018-09-10T13:56:40.497Z,27.00
2018-09-10T13:59:09.858Z,27.00
2018-09-10T14:01:39.225Z,26.70
2018-09-10T14:04:08.590Z,26.80
2018-09-10T14:06:38.001Z,27.40
2018-09-10T14:09:08.047Z,27.00
2018-09-10T14:11:37.970Z,27.10
2018-09-10T14:14:07.873Z,27.20
2018-09-10T14:16:37.287Z,27.80
2018-09-10T14:19:06.735Z,27.60
2018-09-10T14:21:36.110Z,27.70
2018-09-10T14:24:05.567Z,27.60
2018-09-10T14:26:34.930Z,27.20
2018-09-10T14:29:04.347Z,27.00
2018-09-10T14:31:33.803Z,27.00
2018-09-10T14:34:03.615Z,26.90
2018-09-10T14:36:32.971Z,26.90
2018-09-10T14:39:02.401Z,26.50
2018-09-10T14:41:31.795Z,26.50
2018-09-10T14:44:01.171Z,26.30
2018-09-10T14:46:30.533Z,26.20
2018-09-10T14:48:59.977Z,26.00
2018-09-10T14:51:29.359Z,26.00
2018-09-10T14:53:58.803Z,25.90
2018-09-10T14:56:28.253Z,25.90
2018-09-10T14:58:57.586Z,25.80
2018-09-10T15:01:27.133Z,25.80
2018-09-10T15:03:56.590Z,25.70
2018-09-10T15:06:25.974Z,25.70
2018-09-10T15:08:55.428Z,25.70
2018-09-10T15:11:24.837Z,25.70
2018-09-10T15:13:54.221Z,25.70
2018-09-10T15:16:23.573Z,25.60
2018-09-10T15:18:53.323Z,25.60
2018-09-10T15:21:22.635Z,25.60
2018-09-10T15:23:52.043Z,25.60
2018-09-10T15:26:21.391Z,25.60
2018-09-10T15:28:50.851Z,25.60
2018-09-10T15:31:20.229Z,25.40
2018-09-10T15:33:49.666Z,25.40
2018-09-10T15:36:19.027Z,25.40
2018-09-10T15:38:48.454Z,25.30
2018-09-10T15:41:17.844Z,25.30
2018-09-10T15:43:47.284Z,25.20
2018-09-10T15:46:16.662Z,25.10
2018-09-10T15:48:46.086Z,25.10
2018-09-10T15:51:15.487Z,25.00
2018-09-10T15:53:44.916Z,25.00
2018-09-10T15:56:14.254Z,25.00
2018-09-10T15:58:43.691Z,25.00
2018-09-10T16:01:13.047Z,25.00
2018-09-10T16:03:42.494Z,25.00
2018-09-10T16:06:12.102Z,24.90
2018-09-10T16:08:41.514Z,24.90
2018-09-10T16:11:10.870Z,24.90
2018-09-10T16:13:40.325Z,24.90
2018-09-10T16:16:09.678Z,24.90
2018-09-10T16:18:39.040Z,24.90
2018-09-10T16:21:08.511Z,24.90
2018-09-10T16:23:37.894Z,24.80
2018-09-10T16:26:07.339Z,24.80
2018-09-10T16:28:36.742Z,24.80
2018-09-10T16:31:06.251Z,24.70
2018-09-10T16:33:35.647Z,24.70
2018-09-10T16:36:05.152Z,24.70
2018-09-10T16:38:34.567Z,24.60
2018-09-10T16:41:04.109Z,24.60
2018-09-10T16:43:33.429Z,24.50
2018-09-10T16:46:02.812Z,24.50
2018-09-10T16:48:32.350Z,24.40
2018-09-10T16:51:01.535Z,24.40
2018-09-10T16:53:30.941Z,24.30
2018-09-10T16:56:00.363Z,24.30
2018-09-10T16:58:29.818Z,24.30
2018-09-10T17:00:59.304Z,24.20
2018-09-10T17:03:28.729Z,24.10
2018-09-10T17:05:58.193Z,24.10
2018-09-10T17:08:27.624Z,24.10
2018-09-10T17:10:57.084Z,24.00
2018-09-10T17:13:26.561Z,24.00
2018-09-10T17:15:55.982Z,24.00
2018-09-10T17:18:25.394Z,24.00
2018-09-10T17:20:54.828Z,23.90
2018-09-10T17:23:24.301Z,23.80
2018-09-10T17:25:54.966Z,23.80
2018-09-10T17:28:24.379Z,23.70
2018-09-10T17:30:53.817Z,23.70
2018-09-10T17:33:23.257Z,23.70
2018-09-10T17:35:52.761Z,23.60
2018-09-10T17:38:22.371Z,23.60
2018-09-10T17:40:51.888Z,23.60
2018-09-10T17:43:21.306Z,23.60
2018-09-10T17:45:50.749Z,23.50
2018-09-10T17:48:20.224Z,23.50
2018-09-10T17:50:49.938Z,23.40
2018-09-10T17:53:19.420Z,23.40
2018-09-10T17:55:48.826Z,23.30
2018-09-10T17:58:18.274Z,23.30
2018-09-10T18:00:48.300Z,23.20
2018-09-10T18:03:17.694Z,23.20
2018-09-10T18:05:47.200Z,23.20
2018-09-10T18:08:16.664Z,23.20
2018-09-10T18:10:46.166Z,23.10
2018-09-10T18:13:15.668Z,23.10
2018-09-10T18:15:45.132Z,23.00
2018-09-10T18:18:14.555Z,22.90
2018-09-10T18:20:44.126Z,22.90
2018-09-10T18:23:13.606Z,22.90
2018-09-10T18:25:43.044Z,22.90
2018-09-10T18:28:12.409Z,22.90
2018-09-10T18:30:41.855Z,22.80
2018-09-10T18:33:11.214Z,22.80
2018-09-10T18:35:40.696Z,22.70
2018-09-10T18:38:10.056Z,22.60
2018-09-10T18:40:39.466Z,22.70
2018-09-10T18:43:08.813Z,22.60
2018-09-10T18:45:38.250Z,22.60
2018-09-10T18:48:07.606Z,22.60
2018-09-10T18:50:37.070Z,22.50
2018-09-10T18:53:06.923Z,22.50
2018-09-10T18:55:36.426Z,22.60
2018-09-10T18:58:05.870Z,22.70
2018-09-10T19:00:35.287Z,22.70
2018-09-10T19:03:04.686Z,22.70
2018-09-10T19:05:34.055Z,22.70
2018-09-10T19:08:03.495Z,22.70
2018-09-10T19:10:32.863Z,22.60
2018-09-10T19:13:02.289Z,22.60
2018-09-10T19:15:31.646Z,22.50
2018-09-10T19:18:01.046Z,22.50
2018-09-10T19:20:30.395Z,22.50
2018-09-10T19:22:59.750Z,22.40
2018-09-10T19:25:29.226Z,22.40
2018-09-10T19:27:58.577Z,22.30
2018-09-10T19:30:28.107Z,22.20
2018-09-10T19:32:57.411Z,22.10
2018-09-10T19:35:26.775Z,22.10
2018-09-10T19:37:56.222Z,22.00
2018-09-10T19:40:25.591Z,21.90
2018-09-10T19:42:54.953Z,22.00
2018-09-10T19:45:24.314Z,21.90
2018-09-10T19:47:53.677Z,21.90
2018-09-10T19:50:23.124Z,21.80
2018-09-10T19:52:52.502Z,21.70
2018-09-10T19:55:21.858Z,21.70
2018-09-10T19:57:51.254Z,21.60
2018-09-10T20:00:20.789Z,21.50
2018-09-10T20:02:50.158Z,21.60
2018-09-10T20:05:19.503Z,21.50
2018-09-10T20:07:48.960Z,21.60
2018-09-10T20:10:18.302Z,21.60
2018-09-10T20:12:47.668Z,21.30
2018-09-10T20:15:17.025Z,21.10
2018-09-10T20:17:46.374Z,21.00
2018-09-10T20:20:15.757Z,20.90
2018-09-10T20:22:45.177Z,21.00
2018-09-10T20:25:14.706Z,21.00
2018-09-10T20:27:44.079Z,21.00
2018-09-10T20:30:13.462Z,21.00
2018-09-10T20:32:42.805Z,21.10
2018-09-10T20:35:12.191Z,21.10
2018-09-10T20:37:41.582Z,21.00
2018-09-10T20:40:10.935Z,21.00
2018-09-10T20:42:40.375Z,21.10
2018-09-10T20:45:09.738Z,21.00
2018-09-10T20:47:39.167Z,21.00
2018-09-10T20:50:08.539Z,21.00
2018-09-10T20:52:37.884Z,21.00
2018-09-10T20:55:07.319Z,21.00
2018-09-10T20:57:36.700Z,20.80
2018-09-10T21:00:06.518Z,20.30
2018-09-10T21:02:35.867Z,20.10
2018-09-10T21:05:05.415Z,19.90
2018-09-10T21:07:34.900Z,19.90
2018-09-10T21:10:04.230Z,19.90
2018-09-10T21:12:33.595Z,20.00
2018-09-10T21:15:02.979Z,20.10
2018-09-10T21:17:32.436Z,20.10
2018-09-10T21:20:01.816Z,20.20
2018-09-10T21:22:31.173Z,20.00
2018-09-10T21:25:00.666Z,20.00
2018-09-10T21:27:30.033Z,20.20
2018-09-10T21:29:59.416Z,20.10
2018-09-10T21:32:28.783Z,20.10
2018-09-10T21:34:58.282Z,20.00
2018-09-10T21:37:27.643Z,19.90
2018-09-10T21:39:57.062Z,19.90
2018-09-10T21:42:26.433Z,19.80
2018-09-10T21:44:55.867Z,19.70
2018-09-10T21:47:25.240Z,19.70
2018-09-10T21:49:54.683Z,19.60
2018-09-10T21:52:24.044Z,19.50
2018-09-10T21:54:53.442Z,19.60
2018-09-10T21:57:22.878Z,19.50
2018-09-10T21:59:52.274Z,19.50
2018-09-10T22:02:21.666Z,19.60
2018-09-10T22:04:51.047Z,19.60
2018-09-10T22:07:20.398Z,19.60
2018-09-10T22:09:49.799Z,19.40
2018-09-10T22:12:19.157Z,19.40
2018-09-10T22:14:48.584Z,19.20
2018-09-10T22:17:17.952Z,19.00
2018-09-10T22:19:47.419Z,19.00
2018-09-10T22:22:16.774Z,19.10
2018-09-10T22:24:46.280Z,19.10
2018-09-10T22:27:15.566Z,19.10
2018-09-10T22:29:45.024Z,19.10
2018-09-10T22:32:14.364Z,19.00
2018-09-10T22:34:43.817Z,19.00
2018-09-10T22:37:13.209Z,18.90
2018-09-10T22:39:42.629Z,18.90
2018-09-10T22:42:12.035Z,18.90
2018-09-10T22:44:41.414Z,18.90
2018-09-10T22:47:10.807Z,18.80
2018-09-10T22:49:40.337Z,18.90
2018-09-10T22:52:09.638Z,19.00
2018-09-10T22:54:39.044Z,18.90
2018-09-10T22:57:08.414Z,18.90
2018-09-10T22:59:37.836Z,18.90
2018-09-10T23:02:07.219Z,18.80
2018-09-10T23:04:36.652Z,18.70
2018-09-10T23:07:06.031Z,18.60
2018-09-10T23:09:35.523Z,18.50
2018-09-10T23:12:04.924Z,18.50
2018-09-10T23:14:34.355Z,18.40
2018-09-10T23:17:03.735Z,18.30
2018-09-10T23:19:33.152Z,18.20
2018-09-10T23:22:02.555Z,18.20
2018-09-10T23:24:31.970Z,18.10
2018-09-10T23:27:01.327Z,17.90
2018-09-10T23:29:30.778Z,17.90
2018-09-10T23:32:00.182Z,17.70
2018-09-10T23:34:29.627Z,17.70
2018-09-10T23:36:59.083Z,17.50
2018-09-10T23:39:28.444Z,17.40
2018-09-10T23:41:57.967Z,17.50
2018-09-10T23:44:27.327Z,17.40
2018-09-10T23:46:56.791Z,17.30
2018-09-10T23:49:26.162Z,17.30
2018-09-10T23:51:55.608Z,17.30
2018-09-10T23:54:25.009Z,17.40
2018-09-10T23:56:54.413Z,17.40
2018-09-10T23:59:23.766Z,17.30
